Terminal Aerodrome Forecast
Issued by NWS

Home | Current Version | Previous Version | Graphics & Text | Print | Product List | Glossary On
Versions: 1 2 3 4 5 6 7 8 9 10 11 12 13 14 15 16 17
000
FTUS43 KMPX 191743
TAFAXN
TAF
KAXN 191743Z 1918/2018 14018G25KT P6SM BKN015
     FM200100 14022G30KT P6SM VCSH BKN010 WS020/16050KT
     FM200400 15018G27KT 4SM -TSRA BKN015CB OVC040 WS020/17060KT
     FM200700 19011KT P6SM VCSH OVC020
     FM201300 26013G20KT P6SM SKC=

USA.gov is the U.S. government's official web portal to all federal, state and local government web resources and services.